Francis Creek, Wisconsin
Current Conditions -  °F | °C
As of 2:18 AM on Friday 24 Oct 2014 (Local Time) from KMTW Reporting Station
Haze Haze  
Wind Chill: 50°   Ceiling: 500
Heat Index: 50°   Visibility: 2.5mi
Dew Point: 48°   Wind: 8mph
Humidity: 94%   Direction: 280°W
Pressure: 30.03"   Gusts: NA
Location:  44.2°N, 87.72°W
Report Text: KMTW 240718Z AUTO 28007KT 2 1/2SM BR OVC005 10/09 A3003 RMK AO2
Loading
Personal Weather Stations






























Interactive Weather Map
Tropical Storm Tracking
New forecast layout! Learn more

10-Day Weather Forecast

Advertisements
Track Severe Weather on mobile